Oryuzako, Japan

11:28 PM JST on December 08, 2016 (GMT +0900)
Miyazaki | | Change Station

Elev 26 ft 31.88 °N, 131.45 °E | Updated 2 hours ago

Clear
Clear
48 °F
Feels Like 48 °F
N
8
Wind Variable Wind from West

Today
High -- | Low -- °F
--% Chance of Precip.
Yesterday
High -- | Low -- °F
Precip. -- in
Pressure 30.04 in
Visibility 6.2 miles
Clouds Few 3000 ft
Dew Point 45 °F
Humidity 87%
Rainfall 0.00 in
Snow Depth Not available.
7:01 AM 5:10 PM
Waxing Gibbous, 64% visible
METAR RJFM 081200Z 27007KT 9999 FEW030 09/07 Q1017
Pressure 30.04 in
Visibility 6.2 miles
Clouds Few 3000 ft
Dew Point 45 °F
Humidity 87%
Rainfall 0.00 in
Snow Depth Not available.
7:01 AM 5:10 PM
Waxing Gibbous, 64% visible
METAR RJFM 081200Z 27007KT 9999 FEW030 09/07 Q1017

10-Day Weather Forecast

No radar image for this location.
×

Almanac

Astronomy

Dec. 08, 2016 Rise Set
Actual Time
Civil Twilight
Nautical Twilight
Astronomical Twilight
Moon
Length of Visible Light
Length of Day
Tomorrow will be .
, % of the Moon is Illuminated

Today's Extremes

Country Highs Country Lows

Community

WunderPhotos

Upload Photos

1,956,268 photos uploaded!

WunderBlog® & News

Nearby

Air Quality

  Air Quality AQ Index Pollutant
Not available.

Snow Depth

Station Depth Elevation

Earthquake Activity

City Distance Mag. Time & Date
Minimum magnitude displayed is 2.5.

Coastal Water Temperatures

Place Temperature

Stations

Nearby Weather Stations

Station Location Temp. Windchill Dew Point Humidity Wind Precip. Elev Updated Type